Time;durP1;ratioP1;P1;durP2;ratioP2;P2;SDS_P1;SDS_P2;PMS_P1;PMS_P2;Temp;Humidity;BMP_temperature;BMP_pressure;BME280_temperature;BME280_humidity;BME280_pressure;Samples;Min_cycle;Max_cycle;Signal;HPM_P1;HPM_P2
2023/12/09 00:02:07;;;;;;;15.80;6.93;;;;;;;3.08;78.81;97038.66;4913615;29;20317;-73
2023/12/09 00:04:34;;;;;;;15.13;7.13;;;;;;;3.36;77.60;97037.31;4914253;29;20198;-74
2023/12/09 00:07:01;;;;;;;12.33;5.40;;;;;;;3.14;75.78;97005.31;4913122;29;20289;-74
2023/12/09 00:09:29;;;;;;;11.37;4.63;;;;;;;3.66;72.69;97030.81;4914025;29;20682;-73
2023/12/09 00:11:57;;;;;;;11.60;5.40;;;;;;;3.86;72.96;97033.81;4912813;29;20226;-74
2023/12/09 00:14:24;;;;;;;11.47;5.23;;;;;;;3.84;72.36;97021.06;4914172;29;20202;-74
2023/12/09 00:16:51;;;;;;;10.43;4.83;;;;;;;3.91;73.62;97034.59;4913385;29;20193;-74
2023/12/09 00:19:18;;;;;;;14.40;6.23;;;;;;;3.79;73.47;97037.38;4913958;29;20214;-74
2023/12/09 00:21:45;;;;;;;11.87;5.73;;;;;;;3.61;74.71;97042.84;4916766;29;20198;-73
2023/12/09 00:24:12;;;;;;;14.97;7.10;;;;;;;3.53;75.85;97039.56;4914555;29;20203;-74
2023/12/09 00:26:39;;;;;;;13.03;6.63;;;;;;;3.57;75.21;97036.94;4914827;29;20655;-73
2023/12/09 00:29:06;;;;;;;14.03;6.47;;;;;;;3.76;74.70;97043.41;4913199;29;20226;-74
2023/12/09 00:31:33;;;;;;;14.37;6.50;;;;;;;3.69;74.18;97038.44;4914110;29;20195;-72
2023/12/09 00:34:00;;;;;;;11.10;5.47;;;;;;;3.61;75.48;97048.81;4912893;29;20203;-73
2023/12/09 00:36:27;;;;;;;15.13;7.00;;;;;;;3.69;74.91;97041.00;4913767;29;20206;-72
2023/12/09 00:38:54;;;;;;;13.23;5.77;;;;;;;3.69;74.82;97048.69;4913338;29;20217;-75
2023/12/09 00:41:22;;;;;;;14.60;6.30;;;;;;;3.49;75.24;97048.19;4912826;29;20678;-70
2023/12/09 00:43:49;;;;;;;11.60;5.40;;;;;;;3.51;75.07;97046.44;4912488;29;20200;-73
2023/12/09 00:46:16;;;;;;;13.00;6.47;;;;;;;3.56;75.46;97049.78;4912538;29;20222;-73
2023/12/09 00:48:43;;;;;;;15.40;7.70;;;;;;;3.49;75.83;97053.31;4911870;29;20734;-72
2023/12/09 00:51:11;;;;;;;13.70;6.40;;;;;;;3.53;75.71;97042.13;4912516;29;20194;-71
2023/12/09 00:53:38;;;;;;;14.73;6.97;;;;;;;3.12;76.11;97053.94;4913592;29;20194;-70
2023/12/09 00:56:05;;;;;;;19.47;8.30;;;;;;;2.51;77.98;97040.44;4913091;29;20229;-74
2023/12/09 00:58:32;;;;;;;15.17;6.80;;;;;;;2.79;77.16;97046.81;4913079;29;20285;-72
2023/12/09 01:00:59;;;;;;;12.17;5.57;;;;;;;2.94;76.86;97032.94;4912069;29;20192;-73
2023/12/09 01:03:27;;;;;;;20.00;7.63;;;;;;;3.23;76.87;97036.72;4912059;29;20278;-70
2023/12/09 01:05:54;;;;;;;17.37;8.10;;;;;;;3.37;76.17;97031.34;4913481;29;20236;-70
2023/12/09 01:08:21;;;;;;;14.33;7.40;;;;;;;3.44;76.17;97024.41;4911918;29;20230;-69
2023/12/09 01:10:48;;;;;;;16.20;6.80;;;;;;;3.50;75.29;97019.16;4913016;29;20198;-69
2023/12/09 01:13:16;;;;;;;13.30;6.30;;;;;;;3.60;75.02;97025.81;4912476;29;20202;-69
2023/12/09 01:15:43;;;;;;;15.87;6.23;;;;;;;3.51;74.07;97015.72;4912841;29;20193;-70
2023/12/09 01:18:10;;;;;;;12.03;5.97;;;;;;;3.30;76.17;97020.38;4915899;29;20198;-70
2023/12/09 01:20:37;;;;;;;12.10;6.03;;;;;;;3.52;74.30;97019.97;4912571;29;20230;-73
2023/12/09 01:23:05;;;;;;;14.50;5.37;;;;;;;3.72;73.30;97023.00;4913377;29;20222;-73
2023/12/09 01:25:32;;;;;;;16.07;5.60;;;;;;;3.74;74.04;97022.09;4911784;29;20235;-73
2023/12/09 01:27:59;;;;;;;16.90;6.37;;;;;;;3.77;73.72;97014.34;4912920;29;20227;-73
2023/12/09 01:30:26;;;;;;;18.83;7.20;;;;;;;3.72;73.31;97012.75;4911688;29;20297;-72
2023/12/09 01:32:53;;;;;;;13.07;6.63;;;;;;;3.55;73.90;97031.00;4912847;29;20210;-73
2023/12/09 01:35:20;;;;;;;15.27;6.30;;;;;;;3.60;74.60;97025.81;4912623;29;20591;-73
2023/12/09 01:37:47;;;;;;;12.53;6.50;;;;;;;3.50;73.94;97014.06;4911502;29;20202;-73
2023/12/09 01:40:15;;;;;;;15.17;7.70;;;;;;;3.39;74.84;97006.56;4912809;29;20201;-73
2023/12/09 01:42:42;;;;;;;15.43;6.87;;;;;;;3.37;74.92;97002.34;4911343;29;20703;-72
2023/12/09 01:45:10;;;;;;;14.47;6.90;;;;;;;3.50;75.19;97031.97;4912426;29;20731;-75
2023/12/09 01:47:39;;;;;;;14.17;6.30;;;;;;;3.51;74.94;97034.50;4911315;29;20190;-75
2023/12/09 01:50:07;;;;;;;20.60;8.00;;;;;;;3.28;75.28;97023.81;4912015;29;20221;-74
2023/12/09 01:52:36;;;;;;;14.13;6.53;;;;;;;2.81;77.06;97029.72;4912009;29;20210;-72
2023/12/09 01:55:04;;;;;;;17.47;7.17;;;;;;;2.71;77.78;97028.19;4893414;29;20198;-72
2023/12/09 01:57:31;;;;;;;12.87;5.47;;;;;;;2.57;77.58;97036.94;4912038;29;20678;-75
2023/12/09 01:59:58;;;;;;;16.13;7.13;;;;;;;2.81;77.00;97031.44;4910901;29;20198;-72
2023/12/09 02:02:25;;;;;;;13.57;5.40;;;;;;;2.87;77.21;97032.19;4911841;29;20298;-73
2023/12/09 02:04:55;;;;;;;11.87;5.23;;;;;;;2.79;76.56;97028.91;4910964;29;20698;-73
2023/12/09 02:07:22;;;;;;;13.17;5.67;;;;;;;2.97;75.93;97028.63;4895205;29;20776;-73
2023/12/09 02:09:49;;;;;;;7.00;3.63;;;;;;;3.34;73.87;97022.88;4911839;29;20804;-73
2023/12/09 02:12:31;;;;;;;11.43;4.60;;;;;;;3.39;73.36;97033.88;4911168;29;20711;-72
2023/12/09 02:15:27;;;;;;;9.43;3.67;;;;;;;3.34;72.89;97033.94;4911980;29;20198;-70
2023/12/09 02:18:04;;;;;;;11.03;4.97;;;;;;;2.98;75.53;97040.53;4901293;29;20601;-71
2023/12/09 02:20:32;;;;;;;15.20;6.70;;;;;;;2.75;76.28;97040.06;4911743;29;20276;-69
2023/12/09 02:23:09;;;;;;;11.93;5.57;;;;;;;2.86;76.93;97045.84;4911623;29;20289;-70
2023/12/09 02:25:37;;;;;;;17.50;6.50;;;;;;;2.67;77.03;97053.81;4910749;29;20632;-73
2023/12/09 02:28:14;;;;;;;13.93;6.30;;;;;;;2.64;76.68;97053.88;4911723;29;20321;-72
2023/12/09 02:31:05;;;;;;;15.80;7.07;;;;;;;2.64;77.95;97048.75;4910552;29;20229;-73
2023/12/09 02:33:34;;;;;;;16.83;7.73;;;;;;;2.39;78.02;97025.28;4911529;29;20202;-73
2023/12/09 02:36:05;;;;;;;14.83;6.50;;;;;;;2.58;78.02;97044.56;4911899;29;20226;-73
2023/12/09 02:38:34;;;;;;;15.50;6.43;;;;;;;2.49;79.10;97034.50;4910507;29;20702;-73
2023/12/09 02:41:01;;;;;;;12.50;6.10;;;;;;;2.40;78.46;97039.72;4911607;29;20241;-72
2023/12/09 02:43:28;;;;;;;15.27;6.10;;;;;;;2.12;79.24;97038.41;4910337;29;20198;-71
2023/12/09 02:45:55;;;;;;;17.90;6.57;;;;;;;2.37;78.66;97040.59;4911549;29;20290;-72
2023/12/09 02:48:23;;;;;;;15.10;6.20;;;;;;;2.40;77.88;97032.06;4910209;29;20277;-73
2023/12/09 02:50:50;;;;;;;17.03;7.23;;;;;;;2.67;76.90;97023.13;4911090;29;20215;-71
2023/12/09 02:53:17;;;;;;;11.83;5.10;;;;;;;2.95;75.86;97025.22;4911068;29;20248;-71
2023/12/09 02:55:44;;;;;;;11.77;4.63;;;;;;;3.51;72.94;97028.53;4910432;29;20206;-74
2023/12/09 02:58:12;;;;;;;12.40;5.50;;;;;;;3.37;72.98;97000.63;4911043;29;20203;-73
2023/12/09 03:00:39;;;;;;;14.53;6.57;;;;;;;3.33;73.91;97026.31;4909931;29;20694;-74
2023/12/09 03:03:06;;;;;;;14.70;5.63;;;;;;;3.55;71.99;97040.38;4911079;29;20221;-71
2023/12/09 03:05:34;;;;;;;16.80;7.23;;;;;;;3.76;71.08;97038.28;4909877;29;20597;-70
2023/12/09 03:08:01;;;;;;;27.83;9.47;;;;;;;3.72;73.25;97030.69;4910246;29;20246;-69
2023/12/09 03:10:28;;;;;;;14.37;6.67;;;;;;;3.50;73.29;97021.72;4910781;29;20245;-70
2023/12/09 03:12:55;;;;;;;23.67;10.00;;;;;;;3.50;74.17;97043.06;4910007;29;20653;-69
2023/12/09 03:15:22;;;;;;;19.10;8.20;;;;;;;3.38;73.92;97016.84;4911069;29;20206;-69
2023/12/09 03:17:49;;;;;;;25.53;9.53;;;;;;;3.50;74.19;97029.41;4892947;29;20809;-69
2023/12/09 03:20:18;;;;;;;17.57;7.13;;;;;;;3.54;73.85;97025.91;4911382;29;20206;-69
2023/12/09 03:22:45;;;;;;;15.23;6.07;;;;;;;3.29;74.23;97026.38;4909833;29;20248;-71
2023/12/09 03:25:12;;;;;;;15.40;6.70;;;;;;;3.44;73.35;97030.38;4910793;29;20246;-69
2023/12/09 03:27:39;;;;;;;11.07;4.87;;;;;;;3.53;74.09;97029.34;4910366;29;20321;-70
2023/12/09 03:30:07;;;;;;;15.67;6.20;;;;;;;3.60;73.17;97030.91;4909993;29;20325;-69
2023/12/09 03:32:34;;;;;;;11.57;4.83;;;;;;;3.54;73.00;97015.69;4910651;29;20204;-70
2023/12/09 03:35:01;;;;;;;16.07;6.17;;;;;;;3.48;73.63;97011.53;4909604;29;20202;-70
2023/12/09 03:37:29;;;;;;;14.90;5.67;;;;;;;3.57;73.62;97005.38;4910897;29;20293;-69
2023/12/09 03:39:56;;;;;;;13.23;5.53;;;;;;;3.80;72.85;97013.44;4909894;29;20570;-69
2023/12/09 03:42:23;;;;;;;15.67;5.97;;;;;;;3.73;72.89;97017.03;4910806;29;20213;-70
2023/12/09 03:44:50;;;;;;;17.30;8.47;;;;;;;3.53;74.42;97013.97;4910339;29;20197;-70
2023/12/09 03:47:18;;;;;;;22.73;9.30;;;;;;;3.40;74.66;97003.13;4910153;29;20306;-69
2023/12/09 03:49:55;;;;;;;14.87;6.30;;;;;;;3.20;74.02;97010.31;4893413;29;20266;-70
2023/12/09 03:52:22;;;;;;;13.23;5.03;;;;;;;3.30;73.18;97006.72;4909783;29;20293;-69
2023/12/09 03:54:50;;;;;;;16.53;5.47;;;;;;;3.59;73.26;96995.94;4911018;29;20216;-70
2023/12/09 03:57:17;;;;;;;11.47;4.80;;;;;;;3.57;72.81;97007.94;4909600;29;20209;-70
2023/12/09 03:59:44;;;;;;;10.77;4.97;;;;;;;3.72;72.44;97002.53;4910669;29;20205;-70
2023/12/09 04:02:11;;;;;;;11.30;4.67;;;;;;;3.60;73.31;96998.50;4909887;29;20242;-70
2023/12/09 04:04:40;;;;;;;11.63;5.50;;;;;;;3.68;72.87;97013.69;4910933;29;20232;-69
2023/12/09 04:07:07;;;;;;;12.43;5.57;;;;;;;3.67;72.88;96992.34;4910783;29;20206;-70
2023/12/09 04:09:34;;;;;;;14.80;6.23;;;;;;;3.72;72.82;97018.72;4909610;29;20234;-73
2023/12/09 04:12:01;;;;;;;13.37;5.73;;;;;;;3.12;73.78;97007.91;4910651;29;20541;-70
2023/12/09 04:14:28;;;;;;;12.83;5.73;;;;;;;3.18;74.43;97012.91;4908132;29;20290;-70
2023/12/09 04:16:55;;;;;;;16.97;6.77;;;;;;;3.04;74.68;96996.09;4910788;29;20191;-70
2023/12/09 04:19:23;;;;;;;18.03;8.43;;;;;;;3.30;74.22;97017.81;4912919;29;20758;-71
2023/12/09 04:21:51;;;;;;;18.80;7.87;;;;;;;3.10;73.97;97029.25;4913405;29;20203;-73
2023/12/09 04:24:18;;;;;;;12.67;5.00;;;;;;;2.99;74.44;97016.66;4913808;29;20217;-68
2023/12/09 04:26:46;;;;;;;13.83;6.33;;;;;;;2.92;74.95;97024.44;4912502;29;20254;-71
2023/12/09 04:29:13;;;;;;;11.23;5.10;;;;;;;2.92;76.16;97015.06;4913263;29;20328;-70
2023/12/09 04:31:42;;;;;;;14.73;6.87;;;;;;;2.90;76.14;97011.69;4912109;29;20194;-70
2023/12/09 04:34:10;;;;;;;13.20;5.40;;;;;;;2.97;76.00;97018.38;4913550;29;20210;-71
2023/12/09 04:36:37;;;;;;;10.93;4.40;;;;;;;2.98;75.33;97014.13;4912977;29;20230;-72
2023/12/09 04:39:05;;;;;;;14.40;6.27;;;;;;;3.12;75.39;97018.13;4913750;29;20201;-71
2023/12/09 04:41:32;;;;;;;9.27;4.67;;;;;;;3.14;74.93;97011.28;4913550;29;20640;-72
2023/12/09 04:43:59;;;;;;;13.17;6.30;;;;;;;3.15;74.78;96996.78;4912454;29;20201;-71
2023/12/09 04:46:28;;;;;;;13.67;6.33;;;;;;;3.47;74.29;97003.84;4913849;29;20678;-71
2023/12/09 04:48:56;;;;;;;15.90;6.07;;;;;;;3.34;74.38;97000.69;4912429;29;20751;-70
2023/12/09 04:51:23;;;;;;;17.67;6.53;;;;;;;2.85;75.97;97010.06;4913303;29;20194;-70
2023/12/09 04:53:50;;;;;;;16.80;7.43;;;;;;;2.54;77.18;96989.25;4912608;29;20205;-69
2023/12/09 04:56:18;;;;;;;16.93;7.20;;;;;;;2.94;75.69;96990.31;4913383;29;20206;-72
2023/12/09 04:58:45;;;;;;;13.20;5.63;;;;;;;2.93;75.55;97009.06;4913466;29;20222;-70
2023/12/09 05:01:12;;;;;;;16.30;7.33;;;;;;;3.07;75.73;97009.69;4912700;29;20182;-70
2023/12/09 05:03:39;;;;;;;13.27;7.00;;;;;;;3.13;75.66;97016.44;4913154;29;20627;-71
2023/12/09 05:06:08;;;;;;;19.90;7.33;;;;;;;3.10;75.78;97025.00;4911962;29;20199;-69
2023/12/09 05:08:35;;;;;;;17.30;7.47;;;;;;;3.16;75.47;97009.53;4912975;29;20226;-70
2023/12/09 05:11:02;;;;;;;15.90;6.80;;;;;;;3.17;74.69;97024.00;4911918;29;20210;-70
2023/12/09 05:13:29;;;;;;;18.37;7.70;;;;;;;3.04;74.87;97032.78;4912663;29;20221;-69
2023/12/09 05:15:56;;;;;;;17.83;7.30;;;;;;;3.01;75.34;97014.91;4912194;29;20291;-70
2023/12/09 05:18:23;;;;;;;12.30;5.73;;;;;;;2.95;75.44;97020.13;4912128;29;20202;-69
2023/12/09 05:20:50;;;;;;;13.37;5.37;;;;;;;3.14;74.97;97012.97;4913372;29;20206;-70
2023/12/09 05:23:18;;;;;;;15.27;6.27;;;;;;;3.21;75.14;97025.63;4911984;29;20202;-71
2023/12/09 05:25:45;;;;;;;15.77;7.13;;;;;;;3.25;74.70;97040.09;4913231;29;20616;-73
2023/12/09 05:28:12;;;;;;;15.70;7.10;;;;;;;3.26;74.62;97025.56;4912112;29;20198;-73
2023/12/09 05:30:41;;;;;;;17.03;7.33;;;;;;;3.25;74.94;97037.53;4912033;29;20230;-76
2023/12/09 05:33:08;;;;;;;15.17;7.03;;;;;;;3.43;74.24;97032.94;4912107;29;20297;-72
2023/12/09 05:35:36;;;;;;;14.53;6.67;;;;;;;3.22;74.06;97032.44;4912378;29;20191;-72
2023/12/09 05:38:03;;;;;;;12.67;5.97;;;;;;;3.39;74.18;97052.63;4912659;29;20282;-71
2023/12/09 05:40:30;;;;;;;16.30;6.93;;;;;;;3.33;74.09;97041.66;4898527;29;20213;-70
2023/12/09 05:43:01;;;;;;;16.23;6.83;;;;;;;3.44;73.71;97044.88;4893594;29;20306;-71
2023/12/09 05:45:28;;;;;;;18.20;8.70;;;;;;;3.21;74.28;97033.31;4893254;29;20231;-71
2023/12/09 05:47:57;;;;;;;19.07;8.80;;;;;;;3.13;75.63;97047.13;4893394;29;20191;-71
2023/12/09 05:50:25;;;;;;;16.30;7.33;;;;;;;2.98;75.43;97048.22;4892380;29;20266;-72
2023/12/09 05:52:52;;;;;;;18.90;8.47;;;;;;;2.81;76.66;97065.53;4892979;29;20199;-69
2023/12/09 05:55:19;;;;;;;21.17;8.90;;;;;;;2.72;77.52;97065.66;4894088;29;20211;-70
2023/12/09 05:57:46;;;;;;;19.73;8.67;;;;;;;2.67;77.34;97064.03;4892451;29;20995;-70
2023/12/09 06:00:13;;;;;;;21.27;9.10;;;;;;;2.94;76.91;97068.75;4893152;29;20233;-70
2023/12/09 06:02:41;;;;;;;32.03;11.23;;;;;;;3.16;75.78;97070.94;4891974;29;20242;-70
2023/12/09 06:05:09;;;;;;;27.10;10.83;;;;;;;3.23;76.62;97076.81;4893389;29;20223;-71
2023/12/09 06:07:36;;;;;;;27.43;9.90;;;;;;;3.24;75.88;97071.66;4890974;29;20254;-70
2023/12/09 06:10:05;;;;;;;20.37;8.47;;;;;;;3.26;76.33;97080.16;4893386;29;20258;-71
2023/12/09 06:12:32;;;;;;;15.07;8.30;;;;;;;3.26;76.02;97084.41;4891851;29;20227;-69
2023/12/09 06:14:59;;;;;;;14.37;6.70;;;;;;;3.30;75.72;97070.69;4892268;29;20206;-70
2023/12/09 06:17:29;;;;;;;16.60;6.73;;;;;;;3.12;75.68;97056.50;4893146;29;20204;-73
2023/12/09 06:19:56;;;;;;;18.13;7.50;;;;;;;3.04;75.68;97066.03;4892167;29;20643;-71
2023/12/09 06:22:23;;;;;;;19.40;7.93;;;;;;;3.00;75.52;97056.72;4892790;29;20223;-71
2023/12/09 06:24:51;;;;;;;13.83;6.20;;;;;;;2.99;75.59;97078.03;4892018;29;20203;-72
2023/12/09 06:27:18;;;;;;;20.27;7.43;;;;;;;3.40;74.76;97100.38;4892707;29;20205;-71
2023/12/09 06:29:46;;;;;;;13.93;6.63;;;;;;;3.40;75.26;97089.31;4891591;29;20235;-69
2023/12/09 06:32:14;;;;;;;17.63;7.80;;;;;;;3.41;75.15;97103.78;4894985;29;20215;-70
2023/12/09 06:34:41;;;;;;;18.33;7.57;;;;;;;3.64;74.50;97106.81;4897436;29;20297;-70
2023/12/09 06:37:08;;;;;;;17.90;7.33;;;;;;;3.81;74.28;97113.28;4892143;29;20191;-70
2023/12/09 06:39:36;;;;;;;22.73;10.60;;;;;;;3.86;74.07;97100.41;4892727;29;20318;-69
2023/12/09 06:42:05;;;;;;;17.50;8.50;;;;;;;3.86;73.98;97113.22;4891765;29;20194;-72
2023/12/09 06:44:32;;;;;;;28.80;9.37;;;;;;;3.89;73.42;97098.66;4892314;29;20793;-69
2023/12/09 06:47:02;;;;;;;20.10;9.60;;;;;;;3.88;73.68;97119.16;4892124;29;20726;-68
2023/12/09 06:49:29;;;;;;;34.13;15.13;;;;;;;3.88;73.83;97121.72;4891638;29;20317;-70
2023/12/09 06:51:56;;;;;;;28.20;12.17;;;;;;;3.86;73.59;97115.78;4892523;29;20294;-70
2023/12/09 06:54:23;;;;;;;26.10;12.60;;;;;;;3.83;73.63;97097.94;4891370;29;20203;-69
2023/12/09 06:56:51;;;;;;;33.03;14.67;;;;;;;4.09;73.59;97134.13;4890976;29;20647;-70
2023/12/09 06:59:18;;;;;;;32.00;14.00;;;;;;;4.02;73.10;97106.94;4891341;29;20249;-70
2023/12/09 07:01:49;;;;;;;26.07;11.70;;;;;;;4.29;73.01;97124.34;4906305;29;20683;-75
2023/12/09 07:04:16;;;;;;;24.50;11.17;;;;;;;4.45;72.23;97128.28;4891941;29;20300;-72
2023/12/09 07:06:43;;;;;;;33.30;15.70;;;;;;;4.23;73.35;97129.59;4891589;29;20507;-74
2023/12/09 07:09:11;;;;;;;29.60;12.67;;;;;;;3.76;72.59;97092.06;4891895;29;20231;-74
2023/12/09 07:11:40;;;;;;;29.23;12.87;;;;;;;4.47;72.89;97144.47;4890957;29;20234;-72
2023/12/09 07:14:07;;;;;;;23.50;10.50;;;;;;;4.73;71.14;97131.13;4894889;29;20208;-70
2023/12/09 07:16:37;;;;;;;20.27;9.17;;;;;;;4.81;69.88;97137.78;4906062;29;20281;-70
2023/12/09 07:19:06;;;;;;;20.50;9.47;;;;;;;4.99;69.79;97151.09;4914026;29;20263;-74
2023/12/09 07:21:33;;;;;;;11.83;5.63;;;;;;;4.92;69.34;97117.84;4912164;29;20207;-74
2023/12/09 07:24:01;;;;;;;17.40;7.33;;;;;;;5.36;69.31;97146.78;4910229;29;20647;-72
2023/12/09 07:26:31;;;;;;;12.07;6.13;;;;;;;5.20;69.00;97132.63;4895036;29;20197;-73
2023/12/09 07:29:05;;;;;;;17.17;7.50;;;;;;;5.45;68.78;97146.56;4893227;29;20214;-71
2023/12/09 07:31:34;;;;;;;17.40;6.90;;;;;;;5.61;68.20;97138.44;4894598;29;20655;-74
2023/12/09 07:34:01;;;;;;;15.17;6.53;;;;;;;5.58;68.74;97130.00;4909793;29;20710;-70
2023/12/09 07:36:29;;;;;;;19.33;7.60;;;;;;;5.82;67.35;97118.22;4894178;29;20200;-73
2023/12/09 07:38:58;;;;;;;13.90;5.70;;;;;;;5.52;66.63;97094.19;4909343;29;20775;-77
2023/12/09 07:41:25;;;;;;;15.17;6.20;;;;;;;5.77;66.67;97129.47;4910111;29;20569;-71
2023/12/09 07:43:52;;;;;;;16.80;7.03;;;;;;;5.68;65.81;97113.47;4909801;29;20207;-73
2023/12/09 07:46:19;;;;;;;24.83;9.57;;;;;;;5.81;67.64;97117.41;4910749;29;20223;-70
2023/12/09 07:48:46;;;;;;;18.93;9.00;;;;;;;5.89;66.01;97110.38;4911905;29;20232;-72
2023/12/09 07:51:14;;;;;;;27.23;9.97;;;;;;;6.03;65.69;97133.97;4908592;29;20298;-71
2023/12/09 07:53:42;;;;;;;22.17;8.87;;;;;;;6.11;65.74;97108.06;4896135;29;20204;-72
2023/12/09 07:56:09;;;;;;;20.07;9.00;;;;;;;5.80;65.07;97064.31;4913704;29;20280;-74
2023/12/09 07:58:37;;;;;;;23.10;8.50;;;;;;;6.27;65.48;97120.47;4916254;29;20625;-73
2023/12/09 08:01:04;;;;;;;15.33;6.70;;;;;;;6.16;64.23;97114.75;4903035;29;20219;-71
2023/12/09 08:03:35;;;;;;;19.73;7.23;;;;;;;6.34;64.99;97105.72;4915138;29;20316;-69
2023/12/09 08:06:03;;;;;;;23.10;9.47;;;;;;;6.38;64.62;97097.88;4914214;29;20189;-72
2023/12/09 08:08:30;;;;;;;20.77;8.30;;;;;;;6.42;64.31;97114.03;4912754;29;20212;-69
2023/12/09 08:10:58;;;;;;;23.20;8.37;;;;;;;6.48;64.10;97114.72;4913841;29;20237;-74
2023/12/09 08:13:25;;;;;;;15.37;7.00;;;;;;;6.70;64.34;97114.94;4913050;29;20284;-73
2023/12/09 08:15:52;;;;;;;23.77;9.97;;;;;;;6.49;63.52;97041.78;4913693;29;20204;-70
2023/12/09 08:18:22;;;;;;;12.27;5.50;;;;;;;6.83;62.35;97105.97;4913337;29;20231;-70
2023/12/09 08:20:49;;;;;;;28.93;11.40;;;;;;;6.67;61.98;97085.88;4895521;29;20205;-70
2023/12/09 08:23:16;;;;;;;23.20;8.67;;;;;;;6.77;60.23;97095.84;4913381;29;20214;-74
2023/12/09 08:25:44;;;;;;;13.53;5.07;;;;;;;6.59;59.65;97107.50;4912538;29;20213;-72
2023/12/09 08:28:11;;;;;;;15.80;5.03;;;;;;;6.31;58.40;97091.19;4896926;29;20194;-74
2023/12/09 08:30:39;;;;;;;17.90;5.27;;;;;;;6.06;58.44;97050.81;4910946;29;20237;-71
2023/12/09 08:33:09;;;;;;;15.63;5.17;;;;;;;6.62;58.89;97105.75;4911674;29;20322;-71
2023/12/09 08:35:36;;;;;;;9.63;3.40;;;;;;;6.23;57.94;97118.00;4912591;29;20260;-69
2023/12/09 08:38:07;;;;;;;12.97;4.50;;;;;;;6.31;58.72;97101.47;4895999;29;20201;-70
2023/12/09 08:40:34;;;;;;;14.33;4.97;;;;;;;6.34;59.39;97098.84;4896489;29;20205;-72
2023/12/09 08:43:02;;;;;;;14.77;5.20;;;;;;;6.17;59.44;97066.75;4917818;29;20225;-70
2023/12/09 08:45:31;;;;;;;15.90;5.40;;;;;;;6.40;59.31;97114.09;4926647;29;20216;-71
2023/12/09 08:48:00;;;;;;;12.07;4.30;;;;;;;6.33;57.57;97068.84;4915853;29;20285;-69
2023/12/09 08:50:27;;;;;;;17.83;5.83;;;;;;;6.21;58.52;97037.50;4913802;29;20228;-70
2023/12/09 08:52:56;;;;;;;12.63;4.57;;;;;;;6.83;56.81;97099.97;4895728;29;20203;-70
2023/12/09 08:55:25;;;;;;;12.63;4.80;;;;;;;6.49;57.36;97041.78;4910946;29;20212;-70
2023/12/09 08:57:55;;;;;;;14.20;4.53;;;;;;;6.71;57.14;97084.91;4914249;29;20200;-72
2023/12/09 09:00:26;;;;;;;14.57;5.07;;;;;;;6.64;56.96;97068.78;4894605;29;20292;-71
2023/12/09 09:02:55;;;;;;;13.63;4.80;;;;;;;6.79;57.57;97078.63;4880740;29;20232;-69
2023/12/09 09:05:23;;;;;;;22.20;8.70;;;;;;;7.01;59.27;97079.66;4892502;29;20201;-70
2023/12/09 09:07:53;;;;;;;14.43;5.03;;;;;;;6.83;59.06;97066.50;4911140;29;20195;-71
2023/12/09 09:10:20;;;;;;;11.17;3.97;;;;;;;6.45;56.42;97037.63;4911510;29;20221;-74
2023/12/09 09:12:50;;;;;;;16.20;5.43;;;;;;;6.89;57.37;97058.59;4909036;29;20205;-75
2023/12/09 09:15:19;;;;;;;18.63;6.20;;;;;;;7.07;56.29;97060.59;4910039;29;20268;-70
2023/12/09 09:17:47;;;;;;;15.70;5.60;;;;;;;6.88;56.70;97044.91;4911915;29;20205;-73
2023/12/09 09:20:18;;;;;;;13.07;4.90;;;;;;;7.14;56.88;97054.38;4881521;29;20193;-70
2023/12/09 09:22:52;;;;;;;11.03;4.57;;;;;;;7.51;56.24;97056.56;4911861;29;20205;-74
2023/12/09 09:25:19;;;;;;;17.83;6.67;;;;;;;7.46;56.13;97049.00;4895756;29;20570;-75
2023/12/09 09:27:47;;;;;;;10.67;4.07;;;;;;;7.54;56.29;97061.63;4895628;29;20208;-72
2023/12/09 09:30:23;;;;;;;11.70;5.47;;;;;;;7.72;56.03;97030.94;4913911;29;20237;-73
2023/12/09 09:32:51;;;;;;;24.63;9.20;;;;;;;7.96;55.71;97061.00;4914644;29;20200;-72
2023/12/09 09:35:19;;;;;;;14.07;5.27;;;;;;;8.11;55.18;97052.72;4912541;29;20273;-71
2023/12/09 09:37:47;;;;;;;22.30;7.70;;;;;;;7.45;54.04;96900.47;4913237;29;20202;-71
2023/12/09 09:40:14;;;;;;;19.43;7.57;;;;;;;8.36;53.87;97039.81;4908212;29;20240;-72
2023/12/09 09:42:55;;;;;;;17.33;5.67;;;;;;;8.09;52.33;97038.19;4911714;29;20376;-71
2023/12/09 09:45:25;;;;;;;15.20;5.17;;;;;;;7.67;51.60;97030.22;4911309;29;20209;-73
2023/12/09 09:48:04;;;;;;;16.63;5.60;;;;;;;7.76;52.45;97034.22;4911024;29;20613;-72
2023/12/09 09:50:42;;;;;;;12.73;4.30;;;;;;;7.58;53.33;97035.72;4895008;29;20233;-72
2023/12/09 09:53:13;;;;;;;12.17;3.93;;;;;;;7.52;53.11;97023.06;4910724;29;20206;-71
2023/12/09 09:55:44;;;;;;;9.23;3.90;;;;;;;7.66;53.27;97038.88;4912363;29;20230;-74
2023/12/09 09:58:12;;;;;;;11.27;4.33;;;;;;;7.65;52.82;97023.44;4894886;29;20205;-73
2023/12/09 10:00:40;;;;;;;17.83;6.00;;;;;;;7.54;53.89;97012.69;4911317;29;20235;-70
2023/12/09 10:03:08;;;;;;;7.23;3.13;;;;;;;7.79;53.17;97022.06;4895016;29;20240;-74
2023/12/09 10:05:35;;;;;;;17.10;5.70;;;;;;;8.04;52.43;97019.47;4893951;29;20583;-72
2023/12/09 10:08:02;;;;;;;21.63;6.70;;;;;;;7.74;53.18;96943.22;4894260;29;20268;-71
2023/12/09 10:10:32;;;;;;;13.13;5.23;;;;;;;8.01;54.08;97009.28;4908614;29;20229;-71
2023/12/09 10:13:00;;;;;;;15.23;5.30;;;;;;;8.01;54.44;97011.84;4914175;29;20265;-70
2023/12/09 10:15:27;;;;;;;15.97;5.67;;;;;;;7.98;54.42;96950.06;4917542;29;20637;-71
2023/12/09 10:18:01;;;;;;;23.63;7.20;;;;;;;8.32;55.16;97002.13;4896103;29;20205;-70
2023/12/09 10:20:30;;;;;;;18.03;6.57;;;;;;;8.37;54.48;96976.97;4911302;29;20202;-70
2023/12/09 10:23:00;;;;;;;15.10;5.43;;;;;;;8.46;53.62;96965.47;4910926;29;20297;-73
2023/12/09 10:25:28;;;;;;;18.80;6.07;;;;;;;8.49;52.89;96997.16;4910848;29;20198;-71
2023/12/09 10:27:57;;;;;;;20.17;6.13;;;;;;;8.24;52.48;97002.34;4909291;29;20301;-73
2023/12/09 10:30:25;;;;;;;15.17;4.90;;;;;;;8.03;53.36;97000.59;4909308;29;20245;-71
2023/12/09 10:32:52;;;;;;;13.77;4.90;;;;;;;7.97;52.60;96958.72;4910037;29;20194;-72
2023/12/09 10:35:21;;;;;;;20.57;6.93;;;;;;;8.30;52.14;96987.59;4910347;29;20213;-69
2023/12/09 10:37:49;;;;;;;36.40;12.47;;;;;;;8.44;53.11;97001.66;4910489;29;20230;-71
2023/12/09 10:40:19;;;;;;;63.37;20.10;;;;;;;8.35;52.77;97001.16;4909813;29;20310;-71
2023/12/09 10:42:49;;;;;;;44.43;15.73;;;;;;;8.21;53.74;97001.63;4909237;29;20198;-72
2023/12/09 10:45:17;;;;;;;26.00;10.23;;;;;;;8.45;53.09;96994.75;4909091;29;20198;-70
2023/12/09 10:47:44;;;;;;;36.17;13.90;;;;;;;8.44;53.21;97003.41;4893636;29;20192;-70
2023/12/09 10:50:13;;;;;;;23.10;7.23;;;;;;;8.49;52.94;96976.50;4908370;29;20329;-70
2023/12/09 10:52:41;;;;;;;14.37;6.20;;;;;;;8.43;52.45;96996.56;4911269;29;20231;-72
2023/12/09 10:55:09;;;;;;;11.67;4.53;;;;;;;8.45;52.14;96984.44;4910740;29;20306;-72
2023/12/09 10:57:37;;;;;;;15.00;4.97;;;;;;;8.47;52.94;96992.97;4932561;29;20199;-72
2023/12/09 11:00:14;;;;;;;19.53;7.33;;;;;;;8.71;53.08;96990.28;4915899;29;20203;-72
2023/12/09 11:02:43;;;;;;;23.17;9.07;;;;;;;8.90;52.60;97001.53;4909927;29;20373;-73
2023/12/09 11:05:11;;;;;;;16.50;6.43;;;;;;;8.83;51.80;96970.88;4910899;29;20798;-71
2023/12/09 11:07:40;;;;;;;16.40;6.20;;;;;;;8.89;51.84;96983.53;4909986;29;20676;-73
2023/12/09 11:10:09;;;;;;;21.07;7.27;;;;;;;8.86;51.47;96981.09;4909795;29;20234;-70
2023/12/09 11:12:36;;;;;;;21.00;7.53;;;;;;;9.03;51.70;96988.97;4909864;29;20218;-72
2023/12/09 11:15:12;;;;;;;14.80;5.27;;;;;;;8.96;50.80;96984.97;4909214;29;20293;-70
2023/12/09 11:17:43;;;;;;;18.50;7.47;;;;;;;8.97;50.63;96984.06;4893441;29;20217;-72
2023/12/09 11:20:15;;;;;;;19.87;6.27;;;;;;;9.05;51.28;96974.25;4909387;29;20203;-70
2023/12/09 11:23:23;;;;;;;24.20;7.83;;;;;;;9.21;50.31;96974.50;4908615;29;20301;-72
2023/12/09 11:26:49;;;;;;;14.67;5.53;;;;;;;9.36;50.60;96997.09;4892133;29;20682;-71
2023/12/09 11:30:10;;;;;;;14.03;4.33;;;;;;;8.79;51.98;96979.63;4909278;29;20194;-71
2023/12/09 11:33:31;;;;;;;16.33;5.90;;;;;;;8.77;51.94;96979.72;4908293;29;20258;-72
2023/12/09 11:36:52;;;;;;;13.63;4.70;;;;;;;8.67;52.15;96974.97;4890630;29;20202;-74
2023/12/09 11:40:13;;;;;;;15.53;5.27;;;;;;;8.55;52.61;96970.28;4895122;29;20217;-73
2023/12/09 11:43:34;;;;;;;11.87;4.50;;;;;;;8.69;52.99;96968.00;4890804;29;20777;-73
2023/12/09 11:46:55;;;;;;;14.80;5.47;;;;;;;8.39;53.74;96940.81;4889713;29;20198;-71